Ozark, AR (72949)

11:29 AM CDT on May 22, 2017 (GMT -0500)
MUP518 | | Change Station
Active Advisory: Flood Warning Active Notice: Public Information Statement

Elev 390 ft 35.48 °N, 93.81 °W | Updated 13 days ago

Clear
Clear
73.0 °F
Feels Like 73.0 °F
N
-
Wind Variable Wind from North

Today
High -- | Low -- °F
--% Chance of Precip.
Yesterday
High -- | Low -- °F
Precip. -- in
Pressure 30.09 in
Visibility 10.0 miles
Clouds Clear
Dew Point Not available.
Humidity Not available.
Rainfall in
Snow Depth Not available.
6:05 AM 8:18 PM
Waning Crescent, 14% visible
METAR KFSM 221553Z 11010KT 10SM CLR 22/10 A3010 RMK AO2 SLP189 T02220100
Pressure 30.09 in
Visibility 10.0 miles
Clouds Clear
Dew Point Not available.
Humidity Not available.
Rainfall in
Snow Depth Not available.
6:05 AM 8:18 PM
Waning Crescent, 14% visible
METAR KFSM 221553Z 11010KT 10SM CLR 22/10 A3010 RMK AO2 SLP189 T02220100

Get Your Daily Forecast Email!

Thanks for signing up!

Be on the lookout for a verification email in your inbox.

You'll start receiving severe weather alerts in your inbox..

×

10-Day Weather Forecast

Almanac

Astronomy

May. 22, 2017 Rise Set
Actual Time
Civil Twilight
Nautical Twilight
Astronomical Twilight
Moon
Length of Visible Light
Length of Day
Tomorrow will be .
, % of the Moon is Illuminated

Today's Extremes

State Highs State Lows

Community

WunderPhotos

Category 6

Welcome to Category 6. This is the collective home for Weather Underground's featured writeups by Dr. Jeff Masters (right), Bob Henson (left), Chris Burt, and other regular contributors.

Nearby

Air Quality

  Air Quality AQ Index Pollutant
Not available.

Snow Depth

Station Depth Elevation

Earthquake Activity

City Distance Mag. Time & Date
Minimum magnitude displayed is 2.5.

Coastal Water Temperatures

Place Temperature

Stations

Nearby Weather Stations

Station Location Temp. Windchill Dew Point Humidity Wind Precip. Elev Updated Type
                   

Watches & Warnings

Flood Warning
Issued: 9:45 AM CDT May. 22, 2017 – National Weather Service

The Flood Warning continues for
the Arkansas River at Ozark lock and dam.
* Until late tonight, or until the warning is cancelled.
* At 9:00 am Monday, the stage was 359.7 feet.
* Minor flooding is occurring and minor flooding is forecast.
* Flood stage is 357.0 feet.
* Forecast... the river will continue falling to below flood stage
this evening.
* Impact... at 360.0 feet, flooding spreads over more than 4,000 acres
in Franklin and Logan counties. Numerous gas fields are flooded.
Some agricultural lands in Johnson County also are flooded.


Lat... Lon 3546 9405 3550 9382 3542 9347 3536 9349
      3531 9371 3540 9385